Time;durP1;ratioP1;P1;durP2;ratioP2;P2;SDS_P1;SDS_P2;PMS_P1;PMS_P2;Temp;Humidity;BMP_temperature;BMP_pressure;BME280_temperature;BME280_humidity;BME280_pressure;Samples;Min_cycle;Max_cycle;Signal;HPM_P1;HPM_P2
2022/10/07 00:00:28;;;;;;;4.20;1.67;;;20.20;57.30;;;;;;20994868;28;20048;-58
2022/10/07 00:10:29;;;;;;;5.50;1.70;;;20.10;57.90;;;;;;20994579;28;20386;-56
2022/10/07 00:20:37;;;;;;;3.92;1.67;;;20.20;57.90;;;;;;20994076;28;20093;-57
2022/10/07 00:30:39;;;;;;;5.28;1.60;;;20.20;57.90;;;;;;20994061;28;20481;-62
2022/10/07 00:40:40;;;;;;;5.10;1.73;;;20.10;58.10;;;;;;20994316;28;20477;-58
2022/10/07 00:50:42;;;;;;;4.82;1.88;;;20.10;58.50;;;;;;20993390;28;20408;-58
2022/10/07 01:00:44;;;;;;;4.65;2.10;;;19.90;59.10;;;;;;20993302;28;20503;-58
2022/10/07 01:11:15;;;;;;;5.70;2.20;;;19.80;59.50;;;;;;20992919;28;20147;-60
2022/10/07 01:21:52;;;;;;;8.80;2.53;;;19.70;60.00;;;;;;20977328;28;20408;-57
2022/10/07 01:32:06;;;;;;;7.00;2.50;;;19.60;60.00;;;;;;20989289;28;20062;-58
2022/10/07 01:42:10;;;;;;;6.40;2.67;;;19.40;60.80;;;;;;21004620;28;20052;-57
2022/10/07 01:52:54;;;;;;;6.78;2.63;;;19.50;60.80;;;;;;21004360;28;20392;-58
2022/10/07 02:03:26;;;;;;;9.18;3.17;;;19.20;59.00;;;;;;21003431;28;20056;-59
2022/10/07 02:13:39;;;;;;;9.48;2.85;;;19.00;59.40;;;;;;21002908;28;20059;-59
2022/10/07 02:23:44;;;;;;;5.85;2.50;;;18.90;60.30;;;;;;21002467;28;20076;-58
2022/10/07 02:33:52;;;;;;;4.30;2.30;;;18.80;60.70;;;;;;20984566;28;20052;-59
2022/10/07 02:44:19;;;;;;;12.13;3.00;;;18.70;60.40;;;;;;20999833;28;20058;-58
2022/10/07 02:54:27;;;;;;;7.43;3.17;;;18.60;60.50;;;;;;20662266;28;20088;-57
2022/10/07 03:04:28;;;;;;;8.27;3.03;;;18.50;60.60;;;;;;20661816;28;20093;-57
2022/10/07 03:14:33;;;;;;;10.02;3.10;;;18.20;59.30;;;;;;20660963;28;20054;-58
2022/10/07 03:24:35;;;;;;;6.18;2.97;;;18.10;59.90;;;;;;20713177;28;20099;-58
2022/10/07 03:34:37;;;;;;;7.03;2.88;;;18.10;60.30;;;;;;20996707;28;20542;-57
2022/10/07 03:44:39;;;;;;;7.45;3.47;;;17.90;60.50;;;;;;20994948;28;20075;-58
2022/10/07 03:54:41;;;;;;;6.53;3.20;;;17.80;60.60;;;;;;20995068;28;20119;-57
2022/10/07 04:04:43;;;;;;;7.35;3.22;;;17.70;61.00;;;;;;20994941;28;20087;-57
2022/10/07 04:14:45;;;;;;;7.18;2.60;;;17.60;61.20;;;;;;20994962;28;20056;-56
2022/10/07 04:25:32;;;;;;;9.38;3.38;;;17.40;61.40;;;;;;20994373;28;20049;-58
2022/10/07 04:35:09;;;;;;;10.93;4.38;;;17.30;62.00;;;;;;20993867;28;20080;-58
2022/10/07 04:45:11;;;;;;;5.63;2.55;;;17.20;62.40;;;;;;20993883;28;20101;-59
2022/10/07 04:55:14;;;;;;;6.43;2.67;;;17.00;62.30;;;;;;21008513;28;20162;-59
2022/10/07 05:05:17;;;;;;;7.35;2.72;;;16.90;62.60;;;;;;21008035;28;20130;-59
2022/10/07 05:15:18;;;;;;;12.55;2.97;;;16.80;62.70;;;;;;21008192;28;20577;-59
2022/10/07 05:25:20;;;;;;;4.43;2.75;;;16.80;62.90;;;;;;20988120;28;20455;-58
2022/10/07 05:35:22;;;;;;;9.15;3.20;;;16.70;63.30;;;;;;21005557;28;20059;-58
2022/10/07 05:45:24;;;;;;;7.70;2.95;;;16.70;63.60;;;;;;21004677;28;20071;-58
2022/10/07 05:55:26;;;;;;;10.30;3.25;;;16.70;63.80;;;;;;21005809;28;20459;-58
2022/10/07 06:05:31;;;;;;;8.93;3.50;;;16.70;63.70;;;;;;21003356;28;20052;-59
2022/10/07 06:15:33;;;;;;;6.43;3.90;;;16.60;63.90;;;;;;21002745;28;20052;-59
2022/10/07 06:25:35;;;;;;;11.00;3.45;;;16.50;64.30;;;;;;21001935;28;20040;-59
2022/10/07 06:35:36;;;;;;;8.23;4.15;;;16.50;64.60;;;;;;21001494;28;20059;-59
2022/10/07 06:45:41;;;;;;;9.63;3.42;;;16.50;64.10;;;;;;20999986;28;20055;-63
2022/10/07 06:55:43;;;;;;;8.88;4.10;;;16.50;64.30;;;;;;20999164;28;20052;-58
2022/10/07 07:05:46;;;;;;;11.75;3.95;;;16.50;64.70;;;;;;20998721;28;20485;-59
2022/10/07 07:15:58;;;;;;;15.32;4.22;;;16.60;65.30;;;;;;20997784;28;20052;-58
2022/10/07 07:26:00;;;;;;;9.18;4.20;;;16.80;64.80;;;;;;20997655;28;20401;-57
2022/10/07 07:36:01;;;;;;;15.00;4.82;;;16.90;64.20;;;;;;20996519;28;20131;-58
2022/10/07 07:46:03;;;;;;;10.23;4.65;;;17.00;63.80;;;;;;20995830;28;20060;-58
2022/10/07 07:56:05;;;;;;;13.05;6.25;;;17.20;64.10;;;;;;20995808;28;20045;-58
2022/10/07 08:06:08;;;;;;;14.43;6.18;;;17.40;63.70;;;;;;20995982;28;20412;-58
2022/10/07 08:16:13;;;;;;;14.27;6.77;;;17.70;62.70;;;;;;20996235;28;20049;-58
2022/10/07 08:26:14;;;;;;;17.13;7.25;;;18.00;61.80;;;;;;21004069;28;20048;-60
2022/10/07 08:36:18;;;;;;;16.75;7.15;;;18.20;61.30;;;;;;21010215;28;20048;-62
2022/10/07 08:46:31;;;;;;;;;;;18.60;60.30;;;;;;21010222;28;20052;-58
2022/10/07 08:56:32;;;;;;;18.88;9.85;;;18.70;60.30;;;;;;21009615;28;20353;-63
2022/10/07 09:06:46;;;;;;;19.75;9.77;;;19.00;59.90;;;;;;21008517;28;20045;-61
2022/10/07 09:16:50;;;;;;;13.05;8.18;;;19.40;59.80;;;;;;21007626;28;20481;-58
2022/10/07 09:26:55;;;;;;;17.02;11.05;;;19.70;58.40;;;;;;21007849;28;20481;-62
2022/10/07 09:37:16;;;;;;;17.75;6.03;;;19.90;58.40;;;;;;21005587;28;20048;-59
2022/10/07 09:47:24;;;;;;;12.70;5.60;;;20.20;57.50;;;;;;21004958;28;20063;-58
2022/10/07 09:57:30;;;;;;;9.90;5.05;;;20.40;56.80;;;;;;21004766;28;20052;-59
2022/10/07 10:07:36;;;;;;;8.13;4.50;;;20.60;56.20;;;;;;21003853;28;20048;-58
2022/10/07 10:17:39;;;;;;;11.15;4.40;;;20.80;55.50;;;;;;21003660;28;20091;-58
2022/10/07 10:27:49;;;;;;;13.80;4.53;;;21.00;55.30;;;;;;21002656;28;20473;-58
2022/10/07 10:38:18;;;;;;;7.55;2.75;;;21.10;54.90;;;;;;21001353;28;20052;-60
2022/10/07 10:48:46;;;;;;;11.82;4.03;;;21.20;54.30;;;;;;20981947;28;20496;-60
2022/10/07 10:59:16;;;;;;;6.97;3.03;;;21.40;53.50;;;;;;20995423;28;20041;-59
2022/10/07 11:09:32;;;;;;;8.85;2.88;;;21.60;52.80;;;;;;20999137;28;20451;-60
2022/10/07 11:19:40;;;;;;;7.72;2.85;;;21.80;52.20;;;;;;20982452;28;20102;-58
2022/10/07 11:30:02;;;;;;;10.15;3.47;;;21.90;51.90;;;;;;20996614;28;20052;-59
2022/10/07 11:40:05;;;;;;;;;;;22.10;51.30;;;;;;20996914;28;20385;-59
2022/10/07 11:50:28;;;;;;;10.13;2.55;;;22.20;51.00;;;;;;20977838;28;20380;-58
2022/10/07 12:00:35;;;;;;;9.52;3.10;;;22.30;50.50;;;;;;20995426;28;20110;-60
2022/10/07 12:10:37;;;;;;;10.07;3.22;;;22.40;50.30;;;;;;20996720;28;20087;-59
2022/10/07 12:20:51;;;;;;;7.18;2.40;;;22.50;49.60;;;;;;20977227;28;20087;-59
2022/10/07 12:30:59;;;;;;;6.95;2.30;;;22.80;48.40;;;;;;20994209;28;20059;-57
2022/10/07 12:41:25;;;;;;;9.35;2.30;;;22.90;48.00;;;;;;20993522;28;20056;-59
2022/10/07 12:51:38;;;;;;;6.90;2.38;;;23.10;47.60;;;;;;20994616;28;20049;-58
2022/10/07 13:02:07;;;;;;;10.45;2.05;;;23.10;46.70;;;;;;20993770;28;20072;-59
2022/10/07 13:12:34;;;;;;;7.18;2.67;;;23.30;46.10;;;;;;21001396;28;20125;-59
2022/10/07 13:22:43;;;;;;;5.45;2.58;;;23.50;45.10;;;;;;21007876;28;20452;-59
2022/10/07 13:32:47;;;;;;;11.90;2.40;;;23.50;45.20;;;;;;21006096;28;20052;-59
2022/10/07 13:42:58;;;;;;;9.02;2.95;;;23.50;45.10;;;;;;21004736;28;20428;-60
2022/10/07 13:53:00;;;;;;;11.07;3.87;;;23.60;44.30;;;;;;21004569;28;20135;-57
2022/10/07 14:03:14;;;;;;;9.90;2.93;;;23.70;43.80;;;;;;21004249;28;20051;-60
2022/10/07 14:13:16;;;;;;;10.48;4.53;;;23.80;43.50;;;;;;21002995;28;20048;-59
2022/10/07 14:23:34;;;;;;;11.40;2.93;;;23.80;43.50;;;;;;21001477;28;20041;-60
2022/10/07 14:44:09;;;;;;;11.50;3.10;;;23.70;43.00;;;;;;21000021;28;20131;-59
2022/10/07 14:54:11;;;;;;;15.67;3.73;;;23.80;43.20;;;;;;20980947;28;20044;-59
2022/10/07 15:04:12;;;;;;;14.27;3.78;;;24.00;42.90;;;;;;20998614;28;20056;-59
2022/10/07 15:14:14;;;;;;;14.10;3.00;;;24.10;42.90;;;;;;20998044;28;20075;-59
2022/10/07 15:24:15;;;;;;;11.73;3.08;;;24.20;43.10;;;;;;20997195;28;20047;-60
2022/10/07 15:34:17;;;;;;;10.23;3.45;;;24.10;43.00;;;;;;20995604;28;20135;-60
2022/10/07 15:44:21;;;;;;;9.27;2.77;;;24.10;42.60;;;;;;20995221;28;20064;-60
2022/10/07 15:54:24;;;;;;;15.27;4.30;;;24.00;43.00;;;;;;20977516;28;20088;-59
2022/10/07 16:04:26;;;;;;;10.05;3.25;;;24.00;43.30;;;;;;20995645;28;20128;-60
2022/10/07 16:14:27;;;;;;;14.47;8.27;;;24.00;42.90;;;;;;20997372;28;20048;-59
2022/10/07 16:24:28;;;;;;;13.90;4.60;;;24.10;43.20;;;;;;20977540;28;20044;-61
2022/10/07 16:34:30;;;;;;;16.67;4.57;;;24.10;42.80;;;;;;20994622;28;20060;-59
2022/10/07 16:44:31;;;;;;;13.77;3.67;;;24.10;43.00;;;;;;20997581;28;20054;-59
2022/10/07 16:54:34;;;;;;;12.13;3.78;;;24.10;42.30;;;;;;21009128;28;20052;-58
2022/10/07 17:04:35;;;;;;;9.65;3.25;;;23.90;42.80;;;;;;21008591;28;20052;-58
2022/10/07 17:14:37;;;;;;;16.23;4.30;;;23.80;42.60;;;;;;21007208;28;20102;-61
2022/10/07 17:24:38;;;;;;;11.87;3.70;;;23.60;43.10;;;;;;21007604;28;20382;-60
2022/10/07 17:34:40;;;;;;;10.27;3.30;;;23.40;43.40;;;;;;21005493;28;20101;-60
2022/10/07 17:44:41;;;;;;;13.48;4.38;;;23.30;43.60;;;;;;21004703;28;20166;-60
2022/10/07 17:54:42;;;;;;;16.42;5.85;;;23.20;43.80;;;;;;21004364;28;20052;-61
2022/10/07 18:04:45;;;;;;;19.48;9.00;;;23.10;44.50;;;;;;21003458;28;20070;-58
2022/10/07 18:25:06;;;;;;;17.17;5.75;;;23.00;44.80;;;;;;21002220;28;20049;-60
2022/10/07 18:35:07;;;;;;;14.00;5.63;;;22.80;45.30;;;;;;20983095;28;20056;-58
2022/10/07 18:45:09;;;;;;;24.98;9.10;;;22.50;46.10;;;;;;21001066;28;20060;-58
2022/10/07 18:55:10;;;;;;;16.35;6.55;;;22.40;47.00;;;;;;21000775;28;20051;-58
2022/10/07 19:05:11;;;;;;;20.30;7.43;;;22.40;46.70;;;;;;20999115;28;20098;-59
2022/10/07 19:15:13;;;;;;;20.42;9.73;;;22.30;46.80;;;;;;20998632;28;20052;-60
2022/10/07 19:35:34;;;;;;;24.05;13.55;;;22.30;47.60;;;;;;20996407;28;20503;-57
2022/10/07 19:45:40;;;;;;;19.23;8.85;;;22.20;48.20;;;;;;20995699;28;20382;-59
2022/10/07 19:55:44;;;;;;;26.60;9.75;;;22.10;49.20;;;;;;20977784;28;20086;-60
2022/10/07 20:05:45;;;;;;;23.02;8.18;;;21.90;49.70;;;;;;20994961;28;20481;-57
2022/10/07 20:15:47;;;;;;;18.88;7.38;;;21.70;50.00;;;;;;20994366;28;20083;-59
2022/10/07 20:25:48;;;;;;;18.58;6.38;;;21.60;50.50;;;;;;21010044;28;20477;-59
2022/10/07 20:35:51;;;;;;;11.13;5.00;;;21.30;51.10;;;;;;21010136;28;20135;-59
2022/10/07 20:45:56;;;;;;;13.40;4.43;;;21.10;51.30;;;;;;21010073;28;20080;-59
2022/10/07 20:56:02;;;;;;;14.73;4.93;;;20.80;51.50;;;;;;21008998;28;20063;-58
2022/10/07 21:06:05;;;;;;;14.73;4.80;;;20.60;52.00;;;;;;21008279;28;20071;-60
2022/10/07 21:16:06;;;;;;;12.23;4.25;;;20.40;52.40;;;;;;21007688;28;20055;-60
2022/10/07 21:26:12;;;;;;;16.55;5.38;;;20.40;52.50;;;;;;21006688;28;20951;-57
2022/10/07 21:36:15;;;;;;;17.67;4.95;;;20.20;52.70;;;;;;21005732;28;20052;-59
2022/10/07 21:46:17;;;;;;;16.50;4.90;;;20.10;53.00;;;;;;21005522;28;20664;-59
2022/10/07 21:56:20;;;;;;;16.20;7.30;;;20.00;53.40;;;;;;21004296;28;20053;-59
2022/10/07 22:08:33;;;;;;;12.75;5.88;;;19.90;53.70;;;;;;21004293;28;20056;-58
2022/10/07 22:16:43;;;;;;;15.73;6.55;;;19.90;54.00;;;;;;21002587;28;20052;-62
2022/10/07 22:26:46;;;;;;;20.07;7.67;;;19.80;54.20;;;;;;21001958;28;20048;-60
2022/10/07 22:36:48;;;;;;;20.50;7.67;;;19.80;53.90;;;;;;21001634;28;20053;-60
2022/10/07 22:46:49;;;;;;;23.35;9.45;;;19.60;54.50;;;;;;20999971;28;20052;-59
2022/10/07 22:56:51;;;;;;;49.55;26.33;;;19.40;54.80;;;;;;21000146;28;20103;-60
2022/10/07 23:06:53;;;;;;;19.80;9.73;;;19.20;55.00;;;;;;20999821;28;20132;-60
2022/10/07 23:16:54;;;;;;;30.77;11.43;;;19.20;55.10;;;;;;20997838;28;20135;-58
2022/10/07 23:26:56;;;;;;;17.02;6.28;;;19.00;55.40;;;;;;20997084;28;20041;-60
2022/10/07 23:36:57;;;;;;;14.15;4.55;;;19.00;55.70;;;;;;20997212;28;20088;-63
2022/10/07 23:46:59;;;;;;;11.25;5.03;;;18.80;56.20;;;;;;20996777;28;20404;-58
2022/10/07 23:57:00;;;;;;;12.95;5.28;;;18.70;56.70;;;;;;20978157;28;20106;-58
